Time;durP1;ratioP1;P1;durP2;ratioP2;P2;SDS_P1;SDS_P2;PMS_P1;PMS_P2;Temp;Humidity;BMP_temperature;BMP_pressure;BME280_temperature;BME280_humidity;BME280_pressure;Samples;Min_cycle;Max_cycle;Signal;HPM_P1;HPM_P2
2024/03/21 00:00:59;;;;;;;8.43;5.65;;;;;;;;;;5084956;28;20131;-79
2024/03/21 00:03:25;;;;;;;9.73;5.50;;;;;;;;;;5080647;28;20032;-79
2024/03/21 00:05:51;;;;;;;7.57;6.05;;;;;;;;;;5080267;28;20047;-79
2024/03/21 00:08:18;;;;;;;7.05;5.50;;;;;;;;;;5080528;28;20040;-79
2024/03/21 00:10:44;;;;;;;10.18;5.50;;;;;;;;;;5080073;28;20395;-79
2024/03/21 00:13:10;;;;;;;10.10;6.20;;;;;;;;;;5083970;28;20445;-78
2024/03/21 00:15:40;;;;;;;8.63;5.85;;;;;;;;;;5079406;28;20035;-78
2024/03/21 00:18:08;;;;;;;6.63;5.18;;;;;;;;;;5079169;28;20044;-77
2024/03/21 00:20:34;;;;;;;9.98;5.78;;;;;;;;;;5080703;28;20119;-78
2024/03/21 00:23:01;;;;;;;8.15;5.60;;;;;;;;;;5079731;28;20058;-79
2024/03/21 00:25:27;;;;;;;11.30;5.78;;;;;;;;;;5077882;28;20077;-79
2024/03/21 00:27:53;;;;;;;10.30;5.78;;;;;;;;;;5079484;28;21013;-79
2024/03/21 00:30:20;;;;;;;8.90;5.68;;;;;;;;;;5080436;28;20040;-79
2024/03/21 00:32:47;;;;;;;10.07;5.57;;;;;;;;;;5081002;28;20119;-78
2024/03/21 00:35:13;;;;;;;9.07;5.85;;;;;;;;;;5078013;28;20487;-80
2024/03/21 00:37:39;;;;;;;9.95;6.00;;;;;;;;;;5083344;28;20504;-80
2024/03/21 00:40:06;;;;;;;10.18;5.85;;;;;;;;;;5082875;28;20119;-80
2024/03/21 00:42:32;;;;;;;11.38;5.53;;;;;;;;;;5081577;28;20025;-80
2024/03/21 00:44:58;;;;;;;8.63;5.68;;;;;;;;;;5083022;28;20032;-79
2024/03/21 00:47:25;;;;;;;7.93;5.93;;;;;;;;;;5082108;28;20046;-79
2024/03/21 00:49:51;;;;;;;7.15;5.45;;;;;;;;;;5082433;28;20044;-79
2024/03/21 00:52:17;;;;;;;11.43;5.75;;;;;;;;;;5083658;28;20435;-80
2024/03/21 00:54:44;;;;;;;6.78;5.38;;;;;;;;;;5082868;28;20056;-80
2024/03/21 00:57:10;;;;;;;9.80;5.55;;;;;;;;;;5084705;28;20101;-80
2024/03/21 00:59:38;;;;;;;9.43;5.50;;;;;;;;;;5083575;28;20063;-80
2024/03/21 01:02:07;;;;;;;8.15;5.93;;;;;;;;;;5083452;28;20043;-80
2024/03/21 01:04:33;;;;;;;9.48;6.15;;;;;;;;;;5085815;28;20028;-80
2024/03/21 01:07:02;;;;;;;12.10;6.22;;;;;;;;;;5083353;28;20043;-79
2024/03/21 01:09:29;;;;;;;7.93;5.70;;;;;;;;;;5084402;28;20028;-79
2024/03/21 01:11:58;;;;;;;9.88;6.00;;;;;;;;;;5083588;28;20035;-80
2024/03/21 01:14:25;;;;;;;11.85;5.30;;;;;;;;;;5082298;28;20032;-80
2024/03/21 01:16:52;;;;;;;11.05;6.43;;;;;;;;;;5082376;28;20040;-78
2024/03/21 01:19:18;;;;;;;6.80;5.20;;;;;;;;;;5062295;28;20352;-78
2024/03/21 01:21:44;;;;;;;7.90;5.47;;;;;;;;;;5061474;28;20033;-79
2024/03/21 01:24:11;;;;;;;9.52;6.40;;;;;;;;;;5060851;28;20476;-78
2024/03/21 01:26:37;;;;;;;10.60;5.60;;;;;;;;;;5047524;28;20037;-79
2024/03/21 01:29:05;;;;;;;10.38;5.80;;;;;;;;;;5062555;28;20041;-80
2024/03/21 01:31:31;;;;;;;10.30;6.38;;;;;;;;;;5062479;28;20029;-79
2024/03/21 01:33:57;;;;;;;8.48;5.72;;;;;;;;;;5062385;28;20024;-79
2024/03/21 01:36:24;;;;;;;7.53;6.00;;;;;;;;;;5062592;28;20415;-79
2024/03/21 01:38:50;;;;;;;9.05;5.85;;;;;;;;;;5062747;28;20487;-80
2024/03/21 01:41:16;;;;;;;8.15;6.20;;;;;;;;;;5062870;28;20041;-81
2024/03/21 01:43:43;;;;;;;10.13;5.93;;;;;;;;;;5062399;28;20048;-81
2024/03/21 01:46:18;;;;;;;7.10;5.53;;;;;;;;;;5064215;28;20053;-80
2024/03/21 01:48:46;;;;;;;9.70;5.68;;;;;;;;;;5063578;28;20029;-80
2024/03/21 01:51:14;;;;;;;11.70;6.18;;;;;;;;;;5063126;28;20043;-81
2024/03/21 01:53:44;;;;;;;10.50;5.55;;;;;;;;;;5062745;28;20029;-81
2024/03/21 01:56:11;;;;;;;7.82;5.78;;;;;;;;;;5062662;28;20033;-80
2024/03/21 01:58:37;;;;;;;9.15;6.10;;;;;;;;;;5063905;28;20033;-81
2024/03/21 02:01:32;;;;;;;9.32;6.03;;;;;;;;;;5062452;28;20033;-80
2024/03/21 02:04:03;;;;;;;8.70;6.28;;;;;;;;;;5044618;28;20447;-80
2024/03/21 02:06:31;;;;;;;9.27;6.80;;;;;;;;;;5062176;28;20029;-80
2024/03/21 02:09:00;;;;;;;9.35;5.88;;;;;;;;;;5079262;28;20024;-78
2024/03/21 02:11:26;;;;;;;9.90;6.68;;;;;;;;;;5076848;28;20040;-78
2024/03/21 02:13:54;;;;;;;8.85;6.25;;;;;;;;;;5068665;28;20503;-78
2024/03/21 02:16:23;;;;;;;8.73;5.95;;;;;;;;;;5055502;28;20035;-78
2024/03/21 02:18:51;;;;;;;9.48;6.13;;;;;;;;;;5073559;28;20060;-78
2024/03/21 02:24:02;;;;;;;11.05;6.72;;;;;;;;;;5079557;28;20032;-78
2024/03/21 02:26:29;;;;;;;12.63;6.97;;;;;;;;;;5080621;28;20078;-79
2024/03/21 02:28:55;;;;;;;9.65;6.55;;;;;;;;;;5081538;28;20032;-78
2024/03/21 02:31:22;;;;;;;9.63;6.45;;;;;;;;;;5066160;28;20036;-80
2024/03/21 02:33:49;;;;;;;10.75;6.43;;;;;;;;;;5084777;28;20100;-79
2024/03/21 02:36:15;;;;;;;11.27;7.15;;;;;;;;;;5064952;28;20021;-77
2024/03/21 02:38:42;;;;;;;10.65;6.43;;;;;;;;;;5083075;28;20163;-77
2024/03/21 02:41:08;;;;;;;10.75;6.80;;;;;;;;;;5084367;28;20032;-78
2024/03/21 02:43:34;;;;;;;10.20;7.38;;;;;;;;;;5083283;28;20071;-77
2024/03/21 02:46:01;;;;;;;13.02;7.38;;;;;;;;;;5083630;28;20486;-77
2024/03/21 02:48:28;;;;;;;11.52;6.85;;;;;;;;;;5069193;28;20040;-77
2024/03/21 02:50:54;;;;;;;9.85;7.57;;;;;;;;;;5084368;28;20036;-77
2024/03/21 02:53:20;;;;;;;10.88;7.20;;;;;;;;;;5083078;28;20502;-78
2024/03/21 02:55:47;;;;;;;14.77;7.90;;;;;;;;;;5082780;28;20036;-80
2024/03/21 02:58:13;;;;;;;13.77;7.60;;;;;;;;;;5084636;28;20043;-77
2024/03/21 03:00:39;;;;;;;14.77;7.93;;;;;;;;;;5082236;28;20035;-77
2024/03/21 03:03:07;;;;;;;14.85;8.48;;;;;;;;;;5083759;28;20055;-77
2024/03/21 03:05:39;;;;;;;11.00;7.72;;;;;;;;;;5083526;28;20032;-77
2024/03/21 03:08:06;;;;;;;9.85;7.45;;;;;;;;;;5085257;28;20036;-77
2024/03/21 03:10:32;;;;;;;13.57;7.88;;;;;;;;;;5081470;28;20391;-77
2024/03/21 03:12:58;;;;;;;13.77;8.13;;;;;;;;;;5081206;28;20044;-79
2024/03/21 03:15:25;;;;;;;14.13;8.45;;;;;;;;;;5066067;28;20032;-80
2024/03/21 03:17:51;;;;;;;13.05;8.65;;;;;;;;;;5082923;28;20430;-79
2024/03/21 03:20:17;;;;;;;14.98;8.75;;;;;;;;;;5084145;28;20048;-79
2024/03/21 03:22:43;;;;;;;11.68;7.90;;;;;;;;;;5082540;28;20032;-80
2024/03/21 03:25:10;;;;;;;12.27;7.90;;;;;;;;;;5083912;28;20512;-81
2024/03/21 03:27:36;;;;;;;10.65;7.60;;;;;;;;;;5081930;28;20067;-78
2024/03/21 03:30:03;;;;;;;13.07;8.40;;;;;;;;;;5084347;28;20047;-78
2024/03/21 03:32:32;;;;;;;16.60;8.77;;;;;;;;;;5082130;28;20028;-79
2024/03/21 03:37:44;;;;;;;11.93;7.83;;;;;;;;;;5081979;28;20070;-78
2024/03/21 03:40:10;;;;;;;11.50;8.10;;;;;;;;;;5082101;28;20461;-78
2024/03/21 03:42:37;;;;;;;12.05;7.82;;;;;;;;;;5083454;28;20048;-77
2024/03/21 03:45:04;;;;;;;13.40;8.23;;;;;;;;;;5082901;28;20021;-80
2024/03/21 03:47:31;;;;;;;15.00;8.35;;;;;;;;;;5080824;28;20398;-78
2024/03/21 03:49:58;;;;;;;11.85;8.32;;;;;;;;;;5080826;28;20044;-79
2024/03/21 03:52:24;;;;;;;14.07;8.75;;;;;;;;;;5081308;28;20029;-80
2024/03/21 03:54:50;;;;;;;14.68;8.75;;;;;;;;;;5083789;28;20036;-83
2024/03/21 03:57:17;;;;;;;13.57;8.80;;;;;;;;;;5035677;28;20062;-82
2024/03/21 03:59:43;;;;;;;14.20;9.07;;;;;;;;;;5066880;28;20081;-80
2024/03/21 04:02:09;;;;;;;16.88;8.95;;;;;;;;;;5084653;28;20433;-78
2024/03/21 04:04:36;;;;;;;15.40;9.20;;;;;;;;;;5083068;28;20047;-77
2024/03/21 04:07:02;;;;;;;16.98;8.73;;;;;;;;;;5065519;28;20032;-77
2024/03/21 04:09:30;;;;;;;14.88;9.48;;;;;;;;;;5080520;28;20039;-77
2024/03/21 04:11:56;;;;;;;18.98;10.02;;;;;;;;;;5081030;28;20130;-77
2024/03/21 04:14:23;;;;;;;14.48;9.02;;;;;;;;;;5082301;28;20036;-83
2024/03/21 04:16:49;;;;;;;15.45;9.13;;;;;;;;;;5047818;28;20031;-82
2024/03/21 04:19:16;;;;;;;17.60;9.68;;;;;;;;;;5060296;28;20698;-82
2024/03/21 04:21:42;;;;;;;17.30;9.35;;;;;;;;;;5065451;28;20032;-82
2024/03/21 04:24:08;;;;;;;15.82;9.40;;;;;;;;;;5060815;28;20025;-80
2024/03/21 04:26:35;;;;;;;16.20;9.43;;;;;;;;;;5059397;28;20189;-81
2024/03/21 04:29:01;;;;;;;14.77;9.63;;;;;;;;;;5060457;28;20042;-81
2024/03/21 04:31:28;;;;;;;15.30;9.38;;;;;;;;;;5077928;28;20040;-83
2024/03/21 04:33:54;;;;;;;14.57;10.10;;;;;;;;;;5046977;28;20203;-77
2024/03/21 04:36:21;;;;;;;17.25;11.07;;;;;;;;;;5063285;28;20024;-79
2024/03/21 04:38:47;;;;;;;14.32;10.07;;;;;;;;;;5062605;28;20426;-79
2024/03/21 04:41:13;;;;;;;15.20;10.10;;;;;;;;;;5060229;28;20119;-77
2024/03/21 04:43:40;;;;;;;15.90;10.23;;;;;;;;;;5057387;28;20029;-79
2024/03/21 04:46:06;;;;;;;14.57;10.15;;;;;;;;;;5057727;28;20033;-82
2024/03/21 04:48:32;;;;;;;19.23;11.20;;;;;;;;;;5057836;28;20503;-78
2024/03/21 04:50:59;;;;;;;16.27;10.93;;;;;;;;;;5060278;28;20040;-78
2024/03/21 04:53:25;;;;;;;18.95;10.82;;;;;;;;;;5063673;28;20056;-83
2024/03/21 04:55:51;;;;;;;17.38;10.90;;;;;;;;;;5061851;28;20463;-82
2024/03/21 04:58:18;;;;;;;18.67;11.80;;;;;;;;;;5062349;28;20783;-83
2024/03/21 05:00:44;;;;;;;20.20;11.20;;;;;;;;;;5045921;28;20527;-83
2024/03/21 05:03:10;;;;;;;17.92;11.32;;;;;;;;;;5064027;28;20482;-82
2024/03/21 05:05:37;;;;;;;20.55;12.00;;;;;;;;;;5063954;28;20041;-83
2024/03/21 05:08:03;;;;;;;20.60;12.02;;;;;;;;;;5063150;28;20520;-82
2024/03/21 05:10:29;;;;;;;15.60;10.60;;;;;;;;;;5062674;28;20044;-83
2024/03/21 05:12:56;;;;;;;18.00;11.52;;;;;;;;;;5063926;28;20119;-83
2024/03/21 05:15:22;;;;;;;19.17;11.15;;;;;;;;;;5062809;28;20032;-83
2024/03/21 05:17:48;;;;;;;21.40;11.70;;;;;;;;;;5065550;28;20457;-83
2024/03/21 05:20:16;;;;;;;21.65;11.80;;;;;;;;;;5083560;28;20047;-82
2024/03/21 05:22:42;;;;;;;16.02;11.23;;;;;;;;;;5065345;28;20044;-83
2024/03/21 05:25:08;;;;;;;18.77;11.93;;;;;;;;;;5064856;28;20525;-82
2024/03/21 05:30:19;;;;;;;19.60;12.15;;;;;;;;;;5064311;28;20039;-83
2024/03/21 05:32:46;;;;;;;19.77;12.20;;;;;;;;;;5067347;28;20170;-83
2024/03/21 05:35:12;;;;;;;16.83;11.07;;;;;;;;;;5065147;28;20113;-84
2024/03/21 05:37:39;;;;;;;18.55;11.75;;;;;;;;;;5063241;28;20059;-82
2024/03/21 05:40:06;;;;;;;16.55;10.52;;;;;;;;;;5064123;28;20033;-77
2024/03/21 05:42:32;;;;;;;15.00;10.63;;;;;;;;;;5066789;28;20032;-79
2024/03/21 05:44:58;;;;;;;18.42;11.32;;;;;;;;;;5064597;28;20024;-79
2024/03/21 05:47:25;;;;;;;18.45;10.75;;;;;;;;;;5079433;28;20032;-77
2024/03/21 05:49:51;;;;;;;16.52;10.60;;;;;;;;;;5045857;28;20054;-77
2024/03/21 05:52:18;;;;;;;16.90;10.52;;;;;;;;;;5079959;28;20171;-78
2024/03/21 05:54:50;;;;;;;16.10;10.23;;;;;;;;;;5061925;28;20028;-78
2024/03/21 05:57:17;;;;;;;14.45;9.93;;;;;;;;;;5062245;28;20033;-78
2024/03/21 05:59:43;;;;;;;14.20;9.60;;;;;;;;;;5061715;28;20123;-77
2024/03/21 06:02:10;;;;;;;14.43;9.43;;;;;;;;;;5050121;28;20029;-78
2024/03/21 06:04:37;;;;;;;14.00;9.38;;;;;;;;;;5085595;28;20032;-78
2024/03/21 06:07:04;;;;;;;13.73;9.75;;;;;;;;;;5071638;28;20036;-78
2024/03/21 06:09:32;;;;;;;15.73;9.43;;;;;;;;;;5071506;28;20118;-78
2024/03/21 06:11:58;;;;;;;12.13;9.57;;;;;;;;;;5089714;28;20021;-78
2024/03/21 06:14:25;;;;;;;13.27;9.43;;;;;;;;;;5087260;28;20106;-77
2024/03/21 06:16:51;;;;;;;11.95;8.65;;;;;;;;;;5089778;28;20055;-78
2024/03/21 06:19:17;;;;;;;13.80;9.50;;;;;;;;;;5089162;28;20044;-77
2024/03/21 06:21:44;;;;;;;13.85;8.48;;;;;;;;;;5070920;28;20028;-77
2024/03/21 06:24:10;;;;;;;12.93;9.15;;;;;;;;;;5087788;28;20034;-78
2024/03/21 06:26:36;;;;;;;12.07;8.80;;;;;;;;;;5054029;28;20448;-78
2024/03/21 06:29:03;;;;;;;10.50;8.20;;;;;;;;;;5089471;28;20533;-77
2024/03/21 06:31:29;;;;;;;11.63;8.45;;;;;;;;;;5070555;28;20124;-78
2024/03/21 06:33:55;;;;;;;11.45;7.95;;;;;;;;;;5086802;28;20033;-78
2024/03/21 06:36:22;;;;;;;11.40;8.40;;;;;;;;;;5089301;28;20036;-78
2024/03/21 06:38:51;;;;;;;14.95;8.70;;;;;;;;;;5088013;28;20039;-78
2024/03/21 06:41:18;;;;;;;12.77;8.50;;;;;;;;;;5087792;28;20068;-78
2024/03/21 06:43:45;;;;;;;12.02;8.32;;;;;;;;;;5088466;28;20032;-78
2024/03/21 06:46:11;;;;;;;12.88;8.75;;;;;;;;;;5088830;28;20047;-78
2024/03/21 06:48:38;;;;;;;11.70;8.60;;;;;;;;;;5069835;28;20115;-78
2024/03/21 06:51:08;;;;;;;12.43;8.50;;;;;;;;;;5085087;28;20032;-78
2024/03/21 06:53:35;;;;;;;12.57;8.50;;;;;;;;;;5084539;28;20028;-78
2024/03/21 06:56:02;;;;;;;13.85;9.00;;;;;;;;;;5084827;28;20032;-80
2024/03/21 06:58:30;;;;;;;11.65;8.75;;;;;;;;;;5085448;28;20093;-79
2024/03/21 07:00:56;;;;;;;12.90;8.57;;;;;;;;;;5085355;28;20033;-79
2024/03/21 07:03:23;;;;;;;11.27;8.48;;;;;;;;;;5084156;28;20367;-79
2024/03/21 07:05:49;;;;;;;14.82;8.20;;;;;;;;;;5069324;28;20475;-79
2024/03/21 07:08:15;;;;;;;11.13;8.13;;;;;;;;;;5086530;28;20578;-79
2024/03/21 07:10:42;;;;;;;11.07;7.85;;;;;;;;;;5085946;28;20040;-78
2024/03/21 07:13:08;;;;;;;13.57;8.20;;;;;;;;;;5083280;28;20047;-78
2024/03/21 07:15:35;;;;;;;10.10;8.00;;;;;;;;;;5081315;28;20047;-78
2024/03/21 07:18:01;;;;;;;11.27;7.72;;;;;;;;;;5081452;28;20043;-77
2024/03/21 07:20:28;;;;;;;9.70;7.13;;;;;;;;;;5082338;28;20055;-78
2024/03/21 07:22:54;;;;;;;11.82;8.38;;;;;;;;;;5081023;28;20137;-78
2024/03/21 07:25:20;;;;;;;10.63;7.30;;;;;;;;;;5078443;28;20051;-78
2024/03/21 07:27:47;;;;;;;8.93;7.32;;;;;;;;;;5076752;28;20032;-77
2024/03/21 07:30:16;;;;;;;11.13;7.93;;;;;;;;;;5080326;28;20032;-77
2024/03/21 07:32:42;;;;;;;9.60;7.82;;;;;;;;;;5060461;28;20051;-77
2024/03/21 07:35:09;;;;;;;9.50;7.20;;;;;;;;;;5059065;28;20036;-78
2024/03/21 07:37:35;;;;;;;11.25;7.25;;;;;;;;;;5080944;28;20133;-77
2024/03/21 07:40:04;;;;;;;8.82;6.60;;;;;;;;;;5082011;28;20031;-77
2024/03/21 07:42:31;;;;;;;9.30;7.00;;;;;;;;;;5057070;28;20047;-77
2024/03/21 07:44:57;;;;;;;8.82;7.13;;;;;;;;;;5078027;28;20024;-77
2024/03/21 07:47:24;;;;;;;10.90;7.72;;;;;;;;;;5080798;28;20498;-77
2024/03/21 07:49:51;;;;;;;9.02;7.18;;;;;;;;;;5077444;28;20171;-76
2024/03/21 07:52:18;;;;;;;8.57;6.88;;;;;;;;;;5077396;28;20036;-77
2024/03/21 07:54:44;;;;;;;9.48;7.30;;;;;;;;;;5081395;28;20024;-78
2024/03/21 07:57:10;;;;;;;12.60;7.28;;;;;;;;;;5078130;28;20451;-78
2024/03/21 07:59:37;;;;;;;9.75;7.47;;;;;;;;;;5080149;28;20039;-78
2024/03/21 08:02:04;;;;;;;8.50;6.85;;;;;;;;;;5059915;28;20048;-78
2024/03/21 08:04:30;;;;;;;9.80;6.70;;;;;;;;;;5078832;28;20196;-78
2024/03/21 08:06:57;;;;;;;8.50;7.13;;;;;;;;;;5077911;28;20425;-78
2024/03/21 08:09:24;;;;;;;9.80;6.68;;;;;;;;;;5077415;28;20032;-77
2024/03/21 08:11:51;;;;;;;10.07;7.38;;;;;;;;;;5078329;28;20487;-77
2024/03/21 08:14:17;;;;;;;9.23;6.68;;;;;;;;;;5077464;28;20093;-77
2024/03/21 08:16:43;;;;;;;7.93;6.35;;;;;;;;;;5080530;28;20070;-77
2024/03/21 08:19:10;;;;;;;8.75;6.50;;;;;;;;;;5079187;28;20548;-77
2024/03/21 08:21:36;;;;;;;8.32;6.25;;;;;;;;;;5076276;28;20036;-77
2024/03/21 08:24:02;;;;;;;10.27;5.97;;;;;;;;;;5078633;28;20498;-78
2024/03/21 08:26:29;;;;;;;8.05;5.63;;;;;;;;;;5076710;28;20051;-79
2024/03/21 08:28:55;;;;;;;7.18;5.90;;;;;;;;;;5075436;28;20851;-76
2024/03/21 08:31:22;;;;;;;6.95;5.55;;;;;;;;;;5077869;28;20044;-76
2024/03/21 08:33:48;;;;;;;7.88;5.63;;;;;;;;;;5076837;28;20035;-75
2024/03/21 08:36:15;;;;;;;9.48;6.60;;;;;;;;;;5077342;28;20028;-76
2024/03/21 08:38:41;;;;;;;9.15;5.57;;;;;;;;;;5076063;28;20036;-76
2024/03/21 08:41:09;;;;;;;8.10;5.82;;;;;;;;;;5075470;28;20078;-77
2024/03/21 08:43:35;;;;;;;7.63;5.38;;;;;;;;;;5075409;28;20032;-77
2024/03/21 08:46:02;;;;;;;7.65;5.63;;;;;;;;;;5076565;28;20051;-77
2024/03/21 08:48:28;;;;;;;8.02;5.70;;;;;;;;;;5075910;28;20055;-77
2024/03/21 08:50:54;;;;;;;6.72;5.55;;;;;;;;;;5076361;28;20118;-77
2024/03/21 08:53:21;;;;;;;7.43;5.18;;;;;;;;;;5076117;28;20035;-77
2024/03/21 08:55:47;;;;;;;9.25;5.97;;;;;;;;;;5078586;28;20032;-77
2024/03/21 08:58:14;;;;;;;11.02;6.20;;;;;;;;;;5054918;28;20024;-76
2024/03/21 09:00:41;;;;;;;10.15;6.13;;;;;;;;;;5075914;28;20028;-76
2024/03/21 09:03:11;;;;;;;7.80;6.13;;;;;;;;;;5076659;28;20032;-76
2024/03/21 09:05:37;;;;;;;6.95;5.07;;;;;;;;;;5078982;28;20070;-76
2024/03/21 09:08:03;;;;;;;7.95;5.32;;;;;;;;;;5075801;28;20060;-76
2024/03/21 09:10:30;;;;;;;8.70;5.47;;;;;;;;;;5075772;28;20465;-77
2024/03/21 09:12:56;;;;;;;7.35;5.10;;;;;;;;;;5076174;28;20142;-77
2024/03/21 09:15:23;;;;;;;7.88;5.53;;;;;;;;;;5075860;28;20044;-76
2024/03/21 09:17:49;;;;;;;8.40;5.70;;;;;;;;;;5074427;28;20060;-78
2024/03/21 09:20:15;;;;;;;8.18;5.20;;;;;;;;;;5076528;28;20457;-78
2024/03/21 09:22:42;;;;;;;7.70;5.20;;;;;;;;;;5074016;28;20029;-78
2024/03/21 09:25:08;;;;;;;5.22;4.63;;;;;;;;;;5077545;28;20089;-77
2024/03/21 09:27:34;;;;;;;7.95;5.30;;;;;;;;;;5074508;28;20752;-77
2024/03/21 09:30:01;;;;;;;7.47;4.85;;;;;;;;;;5077150;28;20466;-77
2024/03/21 09:32:28;;;;;;;7.57;4.80;;;;;;;;;;5075266;28;20504;-77
2024/03/21 09:34:54;;;;;;;7.35;4.65;;;;;;;;;;5076479;28;20028;-77
2024/03/21 09:37:24;;;;;;;4.97;4.47;;;;;;;;;;5076412;28;20039;-77
2024/03/21 09:39:51;;;;;;;9.60;5.53;;;;;;;;;;5079159;28;20040;-77
2024/03/21 09:42:18;;;;;;;6.78;4.72;;;;;;;;;;5082461;28;20050;-77
2024/03/21 09:44:48;;;;;;;8.43;5.40;;;;;;;;;;5079239;28;20047;-77
2024/03/21 09:47:23;;;;;;;6.25;4.82;;;;;;;;;;5063284;28;20032;-77
2024/03/21 09:49:49;;;;;;;6.73;4.30;;;;;;;;;;5059801;28;20064;-78
2024/03/21 09:52:17;;;;;;;8.68;4.30;;;;;;;;;;5079121;28;20044;-78
2024/03/21 09:54:43;;;;;;;8.18;4.68;;;;;;;;;;5078306;28;20548;-77
2024/03/21 09:57:12;;;;;;;5.28;4.22;;;;;;;;;;5079281;28;20032;-77
2024/03/21 09:59:38;;;;;;;5.82;4.45;;;;;;;;;;5077425;28;20530;-78
2024/03/21 10:02:08;;;;;;;6.75;4.47;;;;;;;;;;5079280;28;20055;-78
2024/03/21 10:04:41;;;;;;;6.60;4.45;;;;;;;;;;5077483;28;20028;-77
2024/03/21 10:07:16;;;;;;;7.22;4.60;;;;;;;;;;5063080;28;20036;-77
2024/03/21 10:09:42;;;;;;;6.55;4.45;;;;;;;;;;5079518;28;20123;-77
2024/03/21 10:12:09;;;;;;;7.75;4.10;;;;;;;;;;5080111;28;20085;-77
2024/03/21 10:14:35;;;;;;;5.45;3.60;;;;;;;;;;5078604;28;20032;-77
2024/03/21 10:17:03;;;;;;;4.80;3.88;;;;;;;;;;5079591;28;20024;-81
2024/03/21 10:19:29;;;;;;;8.75;4.78;;;;;;;;;;5062717;28;20437;-79
2024/03/21 10:21:55;;;;;;;6.88;3.97;;;;;;;;;;5082614;28;20745;-79
2024/03/21 10:24:22;;;;;;;7.70;4.13;;;;;;;;;;5064108;28;20038;-79
2024/03/21 10:26:49;;;;;;;5.28;3.88;;;;;;;;;;5081521;28;20538;-79
2024/03/21 10:29:16;;;;;;;6.07;3.90;;;;;;;;;;5065384;28;20028;-79
2024/03/21 10:31:42;;;;;;;6.65;3.75;;;;;;;;;;5084814;28;20581;-78
2024/03/21 10:34:10;;;;;;;6.43;3.65;;;;;;;;;;5081815;28;20039;-78
2024/03/21 10:36:36;;;;;;;5.45;3.53;;;;;;;;;;5083328;28;20032;-78
2024/03/21 10:39:04;;;;;;;4.88;3.60;;;;;;;;;;5084879;28;20032;-78
2024/03/21 10:41:32;;;;;;;5.70;3.35;;;;;;;;;;5084391;28;20134;-77
2024/03/21 10:44:03;;;;;;;7.88;3.97;;;;;;;;;;5082004;28;20039;-79
2024/03/21 10:46:30;;;;;;;6.70;3.53;;;;;;;;;;5083211;28;20395;-79
2024/03/21 10:49:00;;;;;;;4.13;3.28;;;;;;;;;;5063845;28;20059;-77
2024/03/21 10:51:27;;;;;;;4.80;3.50;;;;;;;;;;5083634;28;20093;-77
2024/03/21 10:53:57;;;;;;;6.93;3.33;;;;;;;;;;5081746;28;20123;-79
2024/03/21 10:56:33;;;;;;;4.72;3.17;;;;;;;;;;5082556;28;20043;-77
2024/03/21 10:58:59;;;;;;;5.25;3.28;;;;;;;;;;5083825;28;20036;-77
2024/03/21 11:01:52;;;;;;;5.75;3.55;;;;;;;;;;5084087;28;20080;-78
2024/03/21 11:04:18;;;;;;;4.35;3.55;;;;;;;;;;5063695;28;20048;-78
2024/03/21 11:06:48;;;;;;;3.40;3.10;;;;;;;;;;5084948;28;20025;-78
2024/03/21 11:09:16;;;;;;;8.07;3.38;;;;;;;;;;5066501;28;20404;-80
2024/03/21 11:11:43;;;;;;;4.45;3.03;;;;;;;;;;5049871;28;20583;-78
2024/03/21 11:14:09;;;;;;;4.22;2.92;;;;;;;;;;5085727;28;20040;-78
2024/03/21 11:16:38;;;;;;;5.78;3.45;;;;;;;;;;5085166;28;20066;-79
2024/03/21 11:19:04;;;;;;;4.97;3.08;;;;;;;;;;5065645;28;20044;-79
2024/03/21 11:21:31;;;;;;;4.15;2.90;;;;;;;;;;5086019;28;20074;-80
2024/03/21 11:23:57;;;;;;;4.75;2.70;;;;;;;;;;5071499;28;20113;-80
2024/03/21 11:26:24;;;;;;;3.55;2.83;;;;;;;;;;5083790;28;20108;-80
2024/03/21 11:28:50;;;;;;;5.30;2.70;;;;;;;;;;5085745;28;20040;-80
2024/03/21 11:31:21;;;;;;;3.58;2.35;;;;;;;;;;5084602;28;20043;-79
2024/03/21 11:33:48;;;;;;;3.58;2.55;;;;;;;;;;5066270;28;20485;-79
2024/03/21 11:36:15;;;;;;;2.90;2.58;;;;;;;;;;5068155;28;20605;-79
2024/03/21 11:38:42;;;;;;;4.07;2.25;;;;;;;;;;5084463;28;20066;-79
2024/03/21 11:41:15;;;;;;;4.35;2.33;;;;;;;;;;5066512;28;20117;-80
2024/03/21 11:43:41;;;;;;;4.75;2.42;;;;;;;;;;5081818;28;20036;-80
2024/03/21 11:46:09;;;;;;;3.53;2.60;;;;;;;;;;5082666;28;20036;-79
2024/03/21 11:48:35;;;;;;;3.08;1.90;;;;;;;;;;5084139;28;20032;-79
2024/03/21 11:51:02;;;;;;;3.30;2.15;;;;;;;;;;5083714;28;20039;-78
2024/03/21 11:53:28;;;;;;;2.60;1.98;;;;;;;;;;5084322;28;20038;-79
2024/03/21 11:55:55;;;;;;;3.40;2.03;;;;;;;;;;5082140;28;20877;-80
2024/03/21 11:58:21;;;;;;;2.45;1.88;;;;;;;;;;5064032;28;20119;-79
2024/03/21 12:00:47;;;;;;;2.38;1.90;;;;;;;;;;5082877;28;20063;-80
2024/03/21 12:03:14;;;;;;;3.38;2.10;;;;;;;;;;5067038;28;20032;-79
2024/03/21 12:05:40;;;;;;;2.70;1.90;;;;;;;;;;5079493;28;20040;-79
2024/03/21 12:08:07;;;;;;;4.25;2.42;;;;;;;;;;5077131;28;20044;-80
2024/03/21 12:10:33;;;;;;;3.25;2.33;;;;;;;;;;5079509;28;20532;-79
2024/03/21 12:12:59;;;;;;;5.90;2.40;;;;;;;;;;5058636;28;20093;-77
2024/03/21 12:15:26;;;;;;;3.72;2.47;;;;;;;;;;5063612;28;20036;-77
2024/03/21 12:17:53;;;;;;;5.38;2.85;;;;;;;;;;5079737;28;20159;-77
2024/03/21 12:20:19;;;;;;;4.00;2.78;;;;;;;;;;5078852;28;20089;-78
2024/03/21 12:22:46;;;;;;;3.63;2.33;;;;;;;;;;5079526;28;20025;-77
2024/03/21 12:25:13;;;;;;;3.25;2.50;;;;;;;;;;5078705;28;20306;-77
2024/03/21 12:27:40;;;;;;;2.92;2.47;;;;;;;;;;5076693;28;20024;-77
2024/03/21 12:30:06;;;;;;;4.28;3.22;;;;;;;;;;5078704;28;20419;-76
2024/03/21 12:32:33;;;;;;;3.50;2.58;;;;;;;;;;5079464;28;20148;-78
2024/03/21 12:34:59;;;;;;;4.72;2.65;;;;;;;;;;5062541;28;20032;-79
2024/03/21 12:37:25;;;;;;;4.53;2.63;;;;;;;;;;5060588;28;20032;-78
2024/03/21 12:39:52;;;;;;;4.70;2.53;;;;;;;;;;5059160;28;20166;-78
2024/03/21 12:42:18;;;;;;;4.15;2.65;;;;;;;;;;5078394;28;20026;-79
2024/03/21 12:44:45;;;;;;;2.97;2.50;;;;;;;;;;5078908;28;20093;-78
2024/03/21 12:47:11;;;;;;;4.97;2.70;;;;;;;;;;5078845;28;20372;-76
2024/03/21 12:49:37;;;;;;;4.60;2.92;;;;;;;;;;5078492;28;20043;-79
2024/03/21 12:52:04;;;;;;;4.85;3.10;;;;;;;;;;5078387;28;20032;-78
2024/03/21 12:54:30;;;;;;;5.55;3.20;;;;;;;;;;5077835;28;20046;-78
2024/03/21 12:56:56;;;;;;;3.70;3.15;;;;;;;;;;5079313;28;20031;-78
2024/03/21 12:59:23;;;;;;;4.10;3.00;;;;;;;;;;5079339;28;20519;-79
2024/03/21 13:01:49;;;;;;;4.88;3.17;;;;;;;;;;5077803;28;20721;-79
2024/03/21 13:04:15;;;;;;;3.80;3.17;;;;;;;;;;5076708;28;20119;-78
2024/03/21 13:06:42;;;;;;;5.13;2.97;;;;;;;;;;5076051;28;20090;-78
2024/03/21 13:09:09;;;;;;;5.13;2.95;;;;;;;;;;5078809;28;20115;-78
2024/03/21 13:11:35;;;;;;;4.30;3.03;;;;;;;;;;5076238;28;20044;-78
2024/03/21 13:14:01;;;;;;;5.85;3.15;;;;;;;;;;5074528;28;20078;-77
2024/03/21 13:16:28;;;;;;;5.07;3.50;;;;;;;;;;5075969;28;20032;-77
2024/03/21 13:18:54;;;;;;;4.13;3.38;;;;;;;;;;5076019;28;20040;-76
2024/03/21 13:21:22;;;;;;;4.97;3.28;;;;;;;;;;5055106;28;20032;-74
2024/03/21 13:23:49;;;;;;;5.38;3.22;;;;;;;;;;5078936;28;20550;-76
2024/03/21 13:26:15;;;;;;;4.90;3.20;;;;;;;;;;5077267;28;20036;-75
2024/03/21 13:28:41;;;;;;;5.60;3.15;;;;;;;;;;5077205;28;20040;-75
2024/03/21 13:31:08;;;;;;;6.88;3.65;;;;;;;;;;5076642;28;20047;-77
2024/03/21 13:33:34;;;;;;;7.85;3.92;;;;;;;;;;5076436;28;20032;-76
2024/03/21 13:36:00;;;;;;;10.32;3.75;;;;;;;;;;5076855;28;20117;-76
2024/03/21 13:38:29;;;;;;;4.75;3.70;;;;;;;;;;5078343;28;20083;-75
2024/03/21 13:40:56;;;;;;;6.13;3.90;;;;;;;;;;5079446;28;20093;-75
2024/03/21 13:43:23;;;;;;;4.43;3.88;;;;;;;;;;5081991;28;20391;-74
2024/03/21 13:45:56;;;;;;;5.47;3.80;;;;;;;;;;5079653;28;20043;-74
2024/03/21 13:48:23;;;;;;;6.55;3.65;;;;;;;;;;5081303;28;20032;-75
2024/03/21 13:50:49;;;;;;;6.75;3.88;;;;;;;;;;5081070;28;20779;-75
2024/03/21 13:53:16;;;;;;;6.65;4.07;;;;;;;;;;5080221;28;20525;-77
2024/03/21 13:55:42;;;;;;;4.43;4.03;;;;;;;;;;5080972;28;20079;-76
2024/03/21 13:58:09;;;;;;;4.80;4.30;;;;;;;;;;5079950;28;20487;-77
2024/03/21 14:00:38;;;;;;;4.75;3.70;;;;;;;;;;5081238;28;20378;-77
2024/03/21 14:03:06;;;;;;;7.30;3.95;;;;;;;;;;5080460;28;20054;-77
2024/03/21 14:05:32;;;;;;;5.47;3.63;;;;;;;;;;5044314;28;20499;-77
2024/03/21 14:07:59;;;;;;;5.28;3.92;;;;;;;;;;5080635;28;20890;-77
2024/03/21 14:10:27;;;;;;;4.47;3.88;;;;;;;;;;5060746;28;20040;-75
2024/03/21 14:12:53;;;;;;;7.15;4.20;;;;;;;;;;5079129;28;20044;-77
2024/03/21 14:15:20;;;;;;;6.80;4.32;;;;;;;;;;5079843;28;20028;-77
2024/03/21 14:17:46;;;;;;;7.28;4.20;;;;;;;;;;5077405;28;20043;-77
2024/03/21 14:20:14;;;;;;;6.72;4.03;;;;;;;;;;5060419;28;21328;-78
2024/03/21 14:22:40;;;;;;;5.18;4.30;;;;;;;;;;5077443;28;20040;-78
2024/03/21 14:25:09;;;;;;;5.68;3.90;;;;;;;;;;5079310;28;20036;-78
2024/03/21 14:27:35;;;;;;;6.55;4.53;;;;;;;;;;5081130;28;20028;-78
2024/03/21 14:30:05;;;;;;;7.03;3.90;;;;;;;;;;5085528;28;20135;-77
2024/03/21 14:32:32;;;;;;;7.43;4.22;;;;;;;;;;5082474;28;20063;-78
2024/03/21 14:34:58;;;;;;;9.90;4.90;;;;;;;;;;5080931;28;20040;-78
2024/03/21 14:37:25;;;;;;;5.32;4.40;;;;;;;;;;5081792;28;20035;-78
2024/03/21 14:39:51;;;;;;;6.18;4.60;;;;;;;;;;5082661;28;20028;-75
2024/03/21 14:42:18;;;;;;;4.70;4.05;;;;;;;;;;5085762;28;20046;-75